sensor_id;sensor_type;location;lat;lon;timestamp;pressure;altitude;pressure_sealevel;temperature;humidity
23619;BME280;18207;32.078;34.818;2023-04-01T00:02:24;101373.03;;;21.92;34.04
23619;BME280;18207;32.078;34.818;2023-04-01T00:04:55;101376.97;;;21.91;34.11
23619;BME280;18207;32.078;34.818;2023-04-01T00:07:25;101376.97;;;21.91;33.69
23619;BME280;18207;32.078;34.818;2023-04-01T00:09:57;101372.84;;;21.89;33.92
23619;BME280;18207;32.078;34.818;2023-04-01T00:12:30;101378.44;;;21.89;34.04
23619;BME280;18207;32.078;34.818;2023-04-01T00:15:00;101384.38;;;21.87;34.19
23619;BME280;18207;32.078;34.818;2023-04-01T00:17:31;101385.50;;;21.86;33.75
23619;BME280;18207;32.078;34.818;2023-04-01T00:20:02;101381.91;;;21.86;33.69
23619;BME280;18207;32.078;34.818;2023-04-01T00:22:33;101380.25;;;21.85;33.81
23619;BME280;18207;32.078;34.818;2023-04-01T00:25:05;101374.97;;;21.83;34.38
23619;BME280;18207;32.078;34.818;2023-04-01T00:27:38;101372.16;;;21.83;33.92
23619;BME280;18207;32.078;34.818;2023-04-01T00:30:10;101380.91;;;21.82;34.22
23619;BME280;18207;32.078;34.818;2023-04-01T00:32:41;101377.31;;;21.81;33.75
23619;BME280;18207;32.078;34.818;2023-04-01T00:35:11;101377.94;;;21.78;34.17
23619;BME280;18207;32.078;34.818;2023-04-01T00:37:42;101384.19;;;21.75;34.32
23619;BME280;18207;32.078;34.818;2023-04-01T00:40:26;101376.13;;;21.74;33.90
23619;BME280;18207;32.078;34.818;2023-04-01T00:43:00;101387.97;;;21.71;33.82
23619;BME280;18207;32.078;34.818;2023-04-01T00:45:36;101373.00;;;21.67;34.44
23619;BME280;18207;32.078;34.818;2023-04-01T00:48:11;101386.50;;;21.65;34.42
23619;BME280;18207;32.078;34.818;2023-04-01T00:50:48;101390.44;;;21.64;33.90
23619;BME280;18207;32.078;34.818;2023-04-01T00:53:20;101386.34;;;21.61;34.05
23619;BME280;18207;32.078;34.818;2023-04-01T00:56:00;101385.50;;;21.61;34.28
23619;BME280;18207;32.078;34.818;2023-04-01T00:58:38;101385.84;;;21.59;34.39
23619;BME280;18207;32.078;34.818;2023-04-01T01:01:10;101384.50;;;21.57;34.58
23619;BME280;18207;32.078;34.818;2023-04-01T01:03:40;101394.06;;;21.56;34.35
23619;BME280;18207;32.078;34.818;2023-04-01T01:06:23;101383.13;;;21.54;34.28
23619;BME280;18207;32.078;34.818;2023-04-01T01:09:22;101396.66;;;21.52;34.07
23619;BME280;18207;32.078;34.818;2023-04-01T01:12:05;101394.50;;;21.50;34.12
23619;BME280;18207;32.078;34.818;2023-04-01T01:14:59;101394.84;;;21.48;34.64
23619;BME280;18207;32.078;34.818;2023-04-01T01:17:44;101398.78;;;21.47;34.07
23619;BME280;18207;32.078;34.818;2023-04-01T01:21:02;101384.28;;;21.45;34.51
23619;BME280;18207;32.078;34.818;2023-04-01T01:27:03;101388.88;;;21.41;34.23
23619;BME280;18207;32.078;34.818;2023-04-01T01:30:14;101394.81;;;21.40;34.25
23619;BME280;18207;32.078;34.818;2023-04-01T01:33:02;101395.94;;;21.39;34.42
23619;BME280;18207;32.078;34.818;2023-04-01T01:35:44;101392.34;;;21.38;34.66
23619;BME280;18207;32.078;34.818;2023-04-01T01:38:18;101399.88;;;21.38;34.27
23619;BME280;18207;32.078;34.818;2023-04-01T01:40:52;101405.81;;;21.36;34.65
23619;BME280;18207;32.078;34.818;2023-04-01T01:43:35;101399.72;;;21.34;34.29
23619;BME280;18207;32.078;34.818;2023-04-01T01:46:11;101400.88;;;21.33;34.09
23619;BME280;18207;32.078;34.818;2023-04-01T01:48:44;101404.00;;;21.32;34.58
23619;BME280;18207;32.078;34.818;2023-04-01T01:51:18;101402.34;;;21.31;34.88
23619;BME280;18207;32.078;34.818;2023-04-01T01:53:50;101407.44;;;21.29;34.47
23619;BME280;18207;32.078;34.818;2023-04-01T01:56:26;101406.63;;;21.28;34.34
23619;BME280;18207;32.078;34.818;2023-04-01T01:59:02;101408.06;;;21.26;34.50
23619;BME280;18207;32.078;34.818;2023-04-01T02:01:39;101406.75;;;21.23;35.01
23619;BME280;18207;32.078;34.818;2023-04-01T02:04:14;101411.84;;;21.21;34.64
23619;BME280;18207;32.078;34.818;2023-04-01T02:06:56;101405.44;;;21.21;34.35
23619;BME280;18207;32.078;34.818;2023-04-01T02:09:28;101409.38;;;21.20;35.02
23619;BME280;18207;32.078;34.818;2023-04-01T02:12:04;101414.97;;;21.20;35.03
23619;BME280;18207;32.078;34.818;2023-04-01T02:14:43;101404.13;;;21.18;34.89
23619;BME280;18207;32.078;34.818;2023-04-01T02:17:18;101408.88;;;21.18;35.09
23619;BME280;18207;32.078;34.818;2023-04-01T02:19:57;101412.00;;;21.16;35.08
23619;BME280;18207;32.078;34.818;2023-04-01T02:22:34;101412.50;;;21.18;35.06
23619;BME280;18207;32.078;34.818;2023-04-01T02:25:10;101413.66;;;21.17;35.02
23619;BME280;18207;32.078;34.818;2023-04-01T02:27:45;101416.13;;;21.19;34.68
23619;BME280;18207;32.078;34.818;2023-04-01T02:30:17;101417.78;;;21.20;34.55
23619;BME280;18207;32.078;34.818;2023-04-01T02:32:49;101418.91;;;21.19;34.76
23619;BME280;18207;32.078;34.818;2023-04-01T02:35:20;101426.16;;;21.20;35.12
23619;BME280;18207;32.078;34.818;2023-04-01T02:37:54;101428.13;;;21.19;35.02
23619;BME280;18207;32.078;34.818;2023-04-01T02:40:25;101436.53;;;21.19;34.65
23619;BME280;18207;32.078;34.818;2023-04-01T02:42:54;101432.88;;;21.19;34.86
23619;BME280;18207;32.078;34.818;2023-04-01T02:45:25;101444.91;;;21.19;34.66
23619;BME280;18207;32.078;34.818;2023-04-01T02:47:56;101437.34;;;21.20;34.66
23619;BME280;18207;32.078;34.818;2023-04-01T02:50:26;101442.13;;;21.19;34.71
23619;BME280;18207;32.078;34.818;2023-04-01T02:52:58;101448.84;;;21.18;35.21
23619;BME280;18207;32.078;34.818;2023-04-01T02:55:28;101444.41;;;21.17;35.36
23619;BME280;18207;32.078;34.818;2023-04-01T02:57:59;101450.81;;;21.18;34.77
23619;BME280;18207;32.078;34.818;2023-04-01T03:00:30;101446.06;;;21.18;34.82
23619;BME280;18207;32.078;34.818;2023-04-01T03:03:01;101448.84;;;21.18;35.26
23619;BME280;18207;32.078;34.818;2023-04-01T03:05:31;101450.81;;;21.18;35.02
23619;BME280;18207;32.078;34.818;2023-04-01T03:08:05;101449.66;;;21.19;35.12
23619;BME280;18207;32.078;34.818;2023-04-01T03:10:35;101448.00;;;21.18;35.40
23619;BME280;18207;32.078;34.818;2023-04-01T03:13:06;101455.25;;;21.19;34.96
23619;BME280;18207;32.078;34.818;2023-04-01T03:15:36;101456.41;;;21.18;35.40
23619;BME280;18207;32.078;34.818;2023-04-01T03:18:07;101460.03;;;21.18;35.20
23619;BME280;18207;32.078;34.818;2023-04-01T03:20:37;101465.63;;;21.18;35.23
23619;BME280;18207;32.078;34.818;2023-04-01T03:23:09;101460.03;;;21.18;35.26
23619;BME280;18207;32.078;34.818;2023-04-01T03:25:40;101465.94;;;21.17;35.08
23619;BME280;18207;32.078;34.818;2023-04-01T03:28:11;101456.72;;;21.16;35.09
23619;BME280;18207;32.078;34.818;2023-04-01T03:30:42;101461.47;;;21.16;35.33
23619;BME280;18207;32.078;34.818;2023-04-01T03:33:12;101471.00;;;21.15;34.95
23619;BME280;18207;32.078;34.818;2023-04-01T03:35:43;101466.59;;;21.14;34.99
23619;BME280;18207;32.078;34.818;2023-04-01T03:38:15;101470.19;;;21.14;35.38
23619;BME280;18207;32.078;34.818;2023-04-01T03:40:46;101478.91;;;21.13;35.53
23619;BME280;18207;32.078;34.818;2023-04-01T03:43:16;101471.66;;;21.12;35.26
23619;BME280;18207;32.078;34.818;2023-04-01T03:45:47;101474.47;;;21.12;35.00
23619;BME280;18207;32.078;34.818;2023-04-01T03:48:18;101481.72;;;21.13;35.58
23619;BME280;18207;32.078;34.818;2023-04-01T03:50:49;101488.44;;;21.12;35.12
23619;BME280;18207;32.078;34.818;2023-04-01T03:53:23;101487.31;;;21.13;35.01
23619;BME280;18207;32.078;34.818;2023-04-01T03:55:53;101496.81;;;21.12;35.44
23619;BME280;18207;32.078;34.818;2023-04-01T03:58:23;101500.75;;;21.11;35.48
23619;BME280;18207;32.078;34.818;2023-04-01T04:00:53;101497.13;;;21.10;35.06
23619;BME280;18207;32.078;34.818;2023-04-01T04:03:24;101503.88;;;21.09;35.71
23619;BME280;18207;32.078;34.818;2023-04-01T04:05:55;101499.13;;;21.10;35.50
23619;BME280;18207;32.078;34.818;2023-04-01T04:08:43;101505.50;;;21.10;35.19
23619;BME280;18207;32.078;34.818;2023-04-01T04:11:14;101505.50;;;21.10;35.67
23619;BME280;18207;32.078;34.818;2023-04-01T04:13:44;101512.75;;;21.11;35.22
23619;BME280;18207;32.078;34.818;2023-04-01T04:16:16;101513.59;;;21.12;35.55
23619;BME280;18207;32.078;34.818;2023-04-01T04:18:47;101513.25;;;21.13;35.82
23619;BME280;18207;32.078;34.818;2023-04-01T04:21:19;101512.94;;;21.15;35.90
23619;BME280;18207;32.078;34.818;2023-04-01T04:23:51;101515.44;;;21.16;35.73
23619;BME280;18207;32.078;34.818;2023-04-01T04:26:21;101519.88;;;21.17;35.87
23619;BME280;18207;32.078;34.818;2023-04-01T04:28:53;101514.78;;;21.19;35.60
23619;BME280;18207;32.078;34.818;2023-04-01T04:31:26;101521.19;;;21.20;35.86
23619;BME280;18207;32.078;34.818;2023-04-01T04:33:58;101519.72;;;21.22;35.58
23619;BME280;18207;32.078;34.818;2023-04-01T04:36:29;101517.44;;;21.24;35.65
23619;BME280;18207;32.078;34.818;2023-04-01T04:39:01;101517.09;;;21.26;35.46
23619;BME280;18207;32.078;34.818;2023-04-01T04:41:32;101520.41;;;21.28;35.45
23619;BME280;18207;32.078;34.818;2023-04-01T04:44:04;101518.13;;;21.30;35.78
23619;BME280;18207;32.078;34.818;2023-04-01T04:46:35;101516.66;;;21.32;35.57
23619;BME280;18207;32.078;34.818;2023-04-01T04:49:07;101520.75;;;21.35;35.53
23619;BME280;18207;32.078;34.818;2023-04-01T04:51:37;101523.75;;;21.38;35.92
23619;BME280;18207;32.078;34.818;2023-04-01T04:54:10;101527.53;;;21.42;36.08
23619;BME280;18207;32.078;34.818;2023-04-01T04:56:41;101526.56;;;21.47;35.88
23619;BME280;18207;32.078;34.818;2023-04-01T04:59:11;101526.75;;;21.50;36.30
23619;BME280;18207;32.078;34.818;2023-04-01T05:01:41;101523.81;;;21.55;36.27
23619;BME280;18207;32.078;34.818;2023-04-01T05:04:11;101530.44;;;21.59;35.72
23619;BME280;18207;32.078;34.818;2023-04-01T05:06:43;101538.19;;;21.62;35.98
23619;BME280;18207;32.078;34.818;2023-04-01T05:09:16;101538.38;;;21.65;35.93
23619;BME280;18207;32.078;34.818;2023-04-01T05:11:46;101548.09;;;21.68;35.96
23619;BME280;18207;32.078;34.818;2023-04-01T05:14:17;101543.16;;;21.73;36.24
23619;BME280;18207;32.078;34.818;2023-04-01T05:16:48;101536.91;;;21.76;35.97
23619;BME280;18207;32.078;34.818;2023-04-01T05:19:19;101541.53;;;21.81;36.31
23619;BME280;18207;32.078;34.818;2023-04-01T05:21:49;101546.16;;;21.85;36.50
23619;BME280;18207;32.078;34.818;2023-04-01T05:24:22;101549.63;;;21.91;36.41
23619;BME280;18207;32.078;34.818;2023-04-01T05:26:53;101550.66;;;21.95;36.39
23619;BME280;18207;32.078;34.818;2023-04-01T05:29:23;101549.66;;;21.99;36.05
23619;BME280;18207;32.078;34.818;2023-04-01T05:31:54;101553.94;;;22.05;36.29
23619;BME280;18207;32.078;34.818;2023-04-01T05:34:25;101548.22;;;22.10;36.56
23619;BME280;18207;32.078;34.818;2023-04-01T05:36:55;101551.69;;;22.16;36.19
23619;BME280;18207;32.078;34.818;2023-04-01T05:39:28;101559.59;;;22.22;36.73
23619;BME280;18207;32.078;34.818;2023-04-01T05:41:59;101551.03;;;22.27;36.73
23619;BME280;18207;32.078;34.818;2023-04-01T05:44:29;101554.19;;;22.34;36.15
23619;BME280;18207;32.078;34.818;2023-04-01T05:47:00;101554.03;;;22.39;36.28
23619;BME280;18207;32.078;34.818;2023-04-01T05:49:30;101547.13;;;22.45;36.57
23619;BME280;18207;32.078;34.818;2023-04-01T05:52:00;101557.84;;;22.51;36.30
23619;BME280;18207;32.078;34.818;2023-04-01T05:54:33;101557.34;;;22.58;36.43
23619;BME280;18207;32.078;34.818;2023-04-01T05:57:04;101560.81;;;22.63;36.67
23619;BME280;18207;32.078;34.818;2023-04-01T05:59:34;101574.81;;;22.72;37.00
23619;BME280;18207;32.078;34.818;2023-04-01T06:02:06;101570.34;;;22.79;36.88
23619;BME280;18207;32.078;34.818;2023-04-01T06:04:39;101561.44;;;22.86;36.77
23619;BME280;18207;32.078;34.818;2023-04-01T06:07:12;101572.66;;;22.94;36.71
23619;BME280;18207;32.078;34.818;2023-04-01T06:09:46;101570.19;;;23.01;36.97
23619;BME280;18207;32.078;34.818;2023-04-01T06:12:40;101571.34;;;23.09;36.79
23619;BME280;18207;32.078;34.818;2023-04-01T06:15:34;101570.84;;;23.15;36.91
23619;BME280;18207;32.078;34.818;2023-04-01T06:19:04;101572.31;;;23.21;36.37
23619;BME280;18207;32.078;34.818;2023-04-01T06:22:20;101570.16;;;23.27;36.16
23619;BME280;18207;32.078;34.818;2023-04-01T06:25:25;101575.72;;;23.35;36.67
23619;BME280;18207;32.078;34.818;2023-04-01T06:28:31;101572.09;;;23.43;36.25
23619;BME280;18207;32.078;34.818;2023-04-01T06:31:20;101564.78;;;23.50;36.58
23619;BME280;18207;32.078;34.818;2023-04-01T06:34:28;101568.38;;;23.59;36.58
23619;BME280;18207;32.078;34.818;2023-04-01T06:37:22;101573.63;;;23.69;36.45
23619;BME280;18207;32.078;34.818;2023-04-01T06:40:28;101571.66;;;23.78;36.69
23619;BME280;18207;32.078;34.818;2023-04-01T06:43:17;101573.91;;;23.85;36.39
23619;BME280;18207;32.078;34.818;2023-04-01T06:45:59;101574.22;;;23.92;36.17
23619;BME280;18207;32.078;34.818;2023-04-01T06:48:46;101569.38;;;24.01;36.58
23619;BME280;18207;32.078;34.818;2023-04-01T06:51:33;101580.09;;;24.07;36.76
23619;BME280;18207;32.078;34.818;2023-04-01T06:54:13;101579.53;;;24.14;36.43
23619;BME280;18207;32.078;34.818;2023-04-01T06:56:53;101575.03;;;24.21;36.18
23619;BME280;18207;32.078;34.818;2023-04-01T06:59:28;101581.41;;;24.30;36.47
23619;BME280;18207;32.078;34.818;2023-04-01T07:02:09;101577.72;;;24.38;36.43
23619;BME280;18207;32.078;34.818;2023-04-01T07:04:48;101582.50;;;24.46;36.23
23619;BME280;18207;32.078;34.818;2023-04-01T07:07:31;101589.22;;;24.53;36.50
23619;BME280;18207;32.078;34.818;2023-04-01T07:10:11;101585.38;;;24.58;36.13
23619;BME280;18207;32.078;34.818;2023-04-01T07:12:49;101591.59;;;24.63;36.29
23619;BME280;18207;32.078;34.818;2023-04-01T07:15:28;101582.16;;;24.68;36.01
23619;BME280;18207;32.078;34.818;2023-04-01T07:18:09;101585.13;;;24.71;35.80
23619;BME280;18207;32.078;34.818;2023-04-01T07:20:42;101591.19;;;24.73;35.85
23619;BME280;18207;32.078;34.818;2023-04-01T07:23:22;101591.69;;;24.75;35.68
23619;BME280;18207;32.078;34.818;2023-04-01T07:25:58;101596.63;;;24.78;35.70
23619;BME280;18207;32.078;34.818;2023-04-01T07:28:34;101583.50;;;24.82;35.86
23619;BME280;18207;32.078;34.818;2023-04-01T07:31:18;101587.41;;;24.90;35.76
23619;BME280;18207;32.078;34.818;2023-04-01T07:34:01;101585.69;;;24.97;35.38
23619;BME280;18207;32.078;34.818;2023-04-01T07:36:44;101584.31;;;25.03;35.68
23619;BME280;18207;32.078;34.818;2023-04-01T07:39:34;101583.47;;;25.11;35.65
23619;BME280;18207;32.078;34.818;2023-04-01T07:42:16;101585.69;;;25.17;35.58
23619;BME280;18207;32.078;34.818;2023-04-01T07:45:07;101585.59;;;25.26;35.51
23619;BME280;18207;32.078;34.818;2023-04-01T07:47:57;101593.97;;;25.34;35.75
23619;BME280;18207;32.078;34.818;2023-04-01T07:50:35;101589.75;;;25.40;35.69
23619;BME280;18207;32.078;34.818;2023-04-01T07:53:19;101600.09;;;25.48;35.42
23619;BME280;18207;32.078;34.818;2023-04-01T07:56:00;101598.34;;;25.56;35.25
23619;BME280;18207;32.078;34.818;2023-04-01T07:58:43;101594.59;;;25.64;35.29
23619;BME280;18207;32.078;34.818;2023-04-01T08:01:32;101587.72;;;25.73;35.25
23619;BME280;18207;32.078;34.818;2023-04-01T08:04:23;101587.63;;;25.82;35.53
23619;BME280;18207;32.078;34.818;2023-04-01T08:07:06;101585.50;;;25.91;35.23
23619;BME280;18207;32.078;34.818;2023-04-01T08:09:46;101582.13;;;25.97;35.25
23619;BME280;18207;32.078;34.818;2023-04-01T08:12:37;101573.91;;;26.04;35.15
23619;BME280;18207;32.078;34.818;2023-04-01T08:15:23;101576.47;;;26.09;35.40
23619;BME280;18207;32.078;34.818;2023-04-01T08:18:11;101583.19;;;26.16;34.96
23619;BME280;18207;32.078;34.818;2023-04-01T08:20:50;101576.47;;;26.21;34.92
23619;BME280;18207;32.078;34.818;2023-04-01T08:23:26;101562.97;;;26.26;34.84
23619;BME280;18207;32.078;34.818;2023-04-01T08:26:04;101565.53;;;26.31;34.58
23619;BME280;18207;32.078;34.818;2023-04-01T08:28:41;101559.66;;;26.36;34.48
23619;BME280;18207;32.078;34.818;2023-04-01T08:31:22;101554.97;;;26.40;34.77
23619;BME280;18207;32.078;34.818;2023-04-01T08:33:56;101545.00;;;26.43;34.85
23619;BME280;18207;32.078;34.818;2023-04-01T08:36:31;101546.38;;;26.49;34.70
23619;BME280;18207;32.078;34.818;2023-04-01T08:39:08;101554.16;;;26.52;34.70
23619;BME280;18207;32.078;34.818;2023-04-01T08:42:03;101546.59;;;26.56;34.53
23619;BME280;18207;32.078;34.818;2023-04-01T08:45:30;101542.22;;;26.58;34.60
23619;BME280;18207;32.078;34.818;2023-04-01T08:52:15;101534.34;;;26.64;34.39
23619;BME280;18207;32.078;34.818;2023-04-01T08:55:25;101532.00;;;26.66;34.45
23619;BME280;18207;32.078;34.818;2023-04-01T08:58:27;101525.66;;;26.69;34.31
23619;BME280;18207;32.078;34.818;2023-04-01T09:01:21;101531.00;;;26.74;34.50
23619;BME280;18207;32.078;34.818;2023-04-01T09:04:24;101531.16;;;26.77;34.46
23619;BME280;18207;32.078;34.818;2023-04-01T09:07:20;101536.53;;;26.82;34.43
23619;BME280;18207;32.078;34.818;2023-04-01T09:10:50;101537.09;;;26.87;34.35
23619;BME280;18207;32.078;34.818;2023-04-01T09:14:09;101528.34;;;26.92;34.37
23619;BME280;18207;32.078;34.818;2023-04-01T09:20:24;101518.22;;;27.03;34.29
23619;BME280;18207;32.078;34.818;2023-04-01T09:23:30;101509.84;;;27.07;34.04
23619;BME280;18207;32.078;34.818;2023-04-01T09:26:31;101502.78;;;27.13;33.98
23619;BME280;18207;32.078;34.818;2023-04-01T09:29:24;101501.22;;;27.15;34.11
23619;BME280;18207;32.078;34.818;2023-04-01T09:35:23;101499.03;;;27.24;34.09
23619;BME280;18207;32.078;34.818;2023-04-01T09:38:04;101494.66;;;27.27;33.79
23619;BME280;18207;32.078;34.818;2023-04-01T09:40:54;101490.31;;;27.29;33.93
23619;BME280;18207;32.078;34.818;2023-04-01T09:43:47;101492.78;;;27.31;33.79
23619;BME280;18207;32.078;34.818;2023-04-01T09:46:35;101488.41;;;27.33;33.92
23619;BME280;18207;32.078;34.818;2023-04-01T09:52:29;101480.00;;;27.37;33.81
23619;BME280;18207;32.078;34.818;2023-04-01T09:55:49;101480.00;;;27.37;33.75
23619;BME280;18207;32.078;34.818;2023-04-01T10:02:26;101480.00;;;27.37;33.77
23619;BME280;18207;32.078;34.818;2023-04-01T10:05:51;101472.75;;;27.36;33.59
23619;BME280;18207;32.078;34.818;2023-04-01T10:19:50;101466.72;;;27.37;33.56
23619;BME280;18207;32.078;34.818;2023-04-01T10:23:02;101475.66;;;27.39;33.41
23619;BME280;18207;32.078;34.818;2023-04-01T10:29:40;101466.72;;;27.37;33.17
23619;BME280;18207;32.078;34.818;2023-04-01T10:39:33;101453.34;;;27.34;33.06
23619;BME280;18207;32.078;34.818;2023-04-01T10:49:47;101447.13;;;27.29;32.97
23619;BME280;18207;32.078;34.818;2023-04-01T11:00:18;101440.94;;;27.23;32.76
23619;BME280;18207;32.078;34.818;2023-04-01T11:03:44;101438.50;;;27.22;32.82
23619;BME280;18207;32.078;34.818;2023-04-01T11:06:59;101430.84;;;27.22;32.80
23619;BME280;18207;32.078;34.818;2023-04-01T11:10:32;101430.03;;;27.22;32.94
23619;BME280;18207;32.078;34.818;2023-04-01T11:14:09;101428.38;;;27.21;33.04
23619;BME280;18207;32.078;34.818;2023-04-01T11:17:40;101420.63;;;27.18;32.83
23619;BME280;18207;32.078;34.818;2023-04-01T11:24:38;101419.38;;;27.15;32.84
23619;BME280;18207;32.078;34.818;2023-04-01T11:27:30;101410.09;;;27.15;32.68
23619;BME280;18207;32.078;34.818;2023-04-01T11:30:25;101416.19;;;27.17;32.90
23619;BME280;18207;32.078;34.818;2023-04-01T11:33:08;101402.06;;;27.17;32.70
23619;BME280;18207;32.078;34.818;2023-04-01T11:36:02;101408.16;;;27.19;32.69
23619;BME280;18207;32.078;34.818;2023-04-01T11:39:16;101402.06;;;27.17;32.61
23619;BME280;18207;32.078;34.818;2023-04-01T11:42:06;101392.78;;;27.16;32.66
23619;BME280;18207;32.078;34.818;2023-04-01T11:44:47;101394.44;;;27.17;32.58
23619;BME280;18207;32.078;34.818;2023-04-01T11:47:53;101399.25;;;27.17;32.58
23619;BME280;18207;32.078;34.818;2023-04-01T11:50:50;101402.44;;;27.15;32.61
23619;BME280;18207;32.078;34.818;2023-04-01T11:53:36;101401.63;;;27.15;32.59
23619;BME280;18207;32.078;34.818;2023-04-01T11:56:30;101405.63;;;27.14;32.64
23619;BME280;18207;32.078;34.818;2023-04-01T11:59:44;101389.44;;;27.11;32.42
23619;BME280;18207;32.078;34.818;2023-04-01T12:02:29;101386.97;;;27.09;32.55
23619;BME280;18207;32.078;34.818;2023-04-01T12:05:36;101387.31;;;27.08;32.63
23619;BME280;18207;32.078;34.818;2023-04-01T12:08:21;101396.16;;;27.06;32.50
23619;BME280;18207;32.078;34.818;2023-04-01T12:11:08;101388.88;;;27.05;32.26
23619;BME280;18207;32.078;34.818;2023-04-01T12:13:53;101411.81;;;27.04;32.50
23619;BME280;18207;32.078;34.818;2023-04-01T12:16:47;101402.91;;;27.02;32.43
23619;BME280;18207;32.078;34.818;2023-04-01T12:19:32;101394.78;;;27.00;32.66
23619;BME280;18207;32.078;34.818;2023-04-01T12:22:43;101388.66;;;26.98;32.59
23619;BME280;18207;32.078;34.818;2023-04-01T12:25:52;101391.88;;;26.97;32.45
23619;BME280;18207;32.078;34.818;2023-04-01T12:28:41;101386.94;;;26.94;32.31
23619;BME280;18207;32.078;34.818;2023-04-01T12:31:29;101395.41;;;26.94;32.49
23619;BME280;18207;32.078;34.818;2023-04-01T12:37:36;101392.84;;;26.89;32.68
23619;BME280;18207;32.078;34.818;2023-04-01T12:41:00;101376.66;;;26.86;32.43
23619;BME280;18207;32.078;34.818;2023-04-01T12:44:10;101376.53;;;26.83;32.84
23619;BME280;18207;32.078;34.818;2023-04-01T12:47:06;101374.94;;;26.82;32.28
23619;BME280;18207;32.078;34.818;2023-04-01T12:54:02;101376.72;;;26.74;32.49
23619;BME280;18207;32.078;34.818;2023-04-01T12:56:52;101362.53;;;26.71;32.41
23619;BME280;18207;32.078;34.818;2023-04-01T12:59:57;101371.72;;;26.68;32.46
23619;BME280;18207;32.078;34.818;2023-04-01T13:02:52;101371.25;;;26.66;32.36
23619;BME280;18207;32.078;34.818;2023-04-01T13:06:16;101365.06;;;26.60;32.49
23619;BME280;18207;32.078;34.818;2023-04-01T13:09:00;101375.06;;;26.58;32.55
23619;BME280;18207;32.078;34.818;2023-04-01T13:11:52;101364.16;;;26.56;32.76
23619;BME280;18207;32.078;34.818;2023-04-01T13:14:52;101366.50;;;26.54;32.60
23619;BME280;18207;32.078;34.818;2023-04-01T13:17:36;101355.13;;;26.51;32.27
23619;BME280;18207;32.078;34.818;2023-04-01T13:20:25;101354.31;;;26.50;32.68
23619;BME280;18207;32.078;34.818;2023-04-01T13:23:13;101358.69;;;26.48;32.73
23619;BME280;18207;32.078;34.818;2023-04-01T13:25:58;101354.59;;;26.45;32.68
23619;BME280;18207;32.078;34.818;2023-04-01T13:28:52;101355.75;;;26.44;32.71
23619;BME280;18207;32.078;34.818;2023-04-01T13:31:38;101358.13;;;26.42;32.57
23619;BME280;18207;32.078;34.818;2023-04-01T13:34:35;101351.22;;;26.40;32.70
23619;BME280;18207;32.078;34.818;2023-04-01T13:37:25;101354.38;;;26.38;32.43
23619;BME280;18207;32.078;34.818;2023-04-01T13:40:30;101349.78;;;26.34;32.58
23619;BME280;18207;32.078;34.818;2023-04-01T13:43:10;101356.50;;;26.29;32.71
23619;BME280;18207;32.078;34.818;2023-04-01T13:46:16;101365.69;;;26.26;32.76
23619;BME280;18207;32.078;34.818;2023-04-01T13:52:33;101365.03;;;26.17;32.63
23619;BME280;18207;32.078;34.818;2023-04-01T13:55:39;101357.66;;;26.13;32.74
23619;BME280;18207;32.078;34.818;2023-04-01T14:01:40;101359.91;;;26.07;32.61
23619;BME280;18207;32.078;34.818;2023-04-01T14:04:42;101367.06;;;26.05;32.92
23619;BME280;18207;32.078;34.818;2023-04-01T14:07:46;101362.16;;;26.02;33.09
23619;BME280;18207;32.078;34.818;2023-04-01T14:10:28;101368.97;;;26.01;32.95
23619;BME280;18207;32.078;34.818;2023-04-01T14:13:13;101359.25;;;25.98;32.80
23619;BME280;18207;32.078;34.818;2023-04-01T14:16:20;101370.03;;;25.97;33.15
23619;BME280;18207;32.078;34.818;2023-04-01T14:19:27;101371.91;;;25.93;32.94
23619;BME280;18207;32.078;34.818;2023-04-01T14:22:11;101370.28;;;25.92;32.86
23619;BME280;18207;32.078;34.818;2023-04-01T14:25:11;101371.00;;;25.89;33.09
23619;BME280;18207;32.078;34.818;2023-04-01T14:28:07;101364.06;;;25.86;32.79
23619;BME280;18207;32.078;34.818;2023-04-01T14:31:04;101374.41;;;25.82;33.10
23619;BME280;18207;32.078;34.818;2023-04-01T14:33:53;101365.88;;;25.79;33.15
23619;BME280;18207;32.078;34.818;2023-04-01T14:40:20;101379.34;;;25.73;33.07
23619;BME280;18207;32.078;34.818;2023-04-01T14:43:58;101379.94;;;25.67;33.24
23619;BME280;18207;32.078;34.818;2023-04-01T14:50:18;101391.44;;;25.62;33.36
23619;BME280;18207;32.078;34.818;2023-04-01T14:52:59;101392.59;;;25.61;33.30
23619;BME280;18207;32.078;34.818;2023-04-01T14:55:51;101393.81;;;25.60;33.08
23619;BME280;18207;32.078;34.818;2023-04-01T14:58:24;101390.50;;;25.58;33.31
23619;BME280;18207;32.078;34.818;2023-04-01T15:01:20;101393.66;;;25.56;33.07
23619;BME280;18207;32.078;34.818;2023-04-01T15:04:06;101395.19;;;25.54;33.39
23619;BME280;18207;32.078;34.818;2023-04-01T15:07:05;101395.56;;;25.52;33.42
23619;BME280;18207;32.078;34.818;2023-04-01T15:09:51;101401.53;;;25.51;33.36
23619;BME280;18207;32.078;34.818;2023-04-01T15:12:36;101395.44;;;25.49;33.71
23619;BME280;18207;32.078;34.818;2023-04-01T15:15:31;101409.53;;;25.49;33.29
23619;BME280;18207;32.078;34.818;2023-04-01T15:18:10;101402.59;;;25.46;33.54
23619;BME280;18207;32.078;34.818;2023-04-01T15:21:13;101413.84;;;25.46;33.87
23619;BME280;18207;32.078;34.818;2023-04-01T15:24:03;101413.41;;;25.44;33.70
23619;BME280;18207;32.078;34.818;2023-04-01T15:27:31;101414.09;;;25.41;33.46
23619;BME280;18207;32.078;34.818;2023-04-01T15:30:28;101407.19;;;25.39;33.81
23619;BME280;18207;32.078;34.818;2023-04-01T15:33:27;101410.00;;;25.39;33.57